St. George, Utah Weather observations

Data are for observation ending at time listed.
 Day   Time    Ave.   Ave.  Ave.  Vector   Max.   Stn.    Total    Solar   Ave.  
  of    of     Air    Rel.  Wind   Wind    Wind   Baro.  Precip.   Rad.    Soil  
Year   Day     Temp.  Hum.  Speed  Dir.    Gust   Pres.                    Temp. 
2015   (MST)    F      %     mph   deg.    mph     mb.     in.     W/m2     F   
------------------------------------------------------------------------------
 213   20:00   85.5    31    4.2   240      7.8   913.4    0.00       2    85.4
 213   20:10   85.4    32    2.2   267      6.9   913.3    0.00       0    85.3
 213   20:20   85.2    32    2.1   239      4.6   913.4    0.00       0    85.3
 213   20:30   85.1    32    1.9   227      4.7   913.6    0.00       0    85.2
 213   20:40   84.8    33    1.0   296      1.9   913.8    0.00       0    85.2
 213   20:50   84.7    33    1.7   229      3.7   913.7    0.00       0    85.2
 213   21:00   84.5    34    1.5   212      3.1   913.8    0.00       0    85.1
 213   21:10   84.5    33    2.0   212      3.7   913.9    0.00       0    85.1
 213   21:20   84.5    33    1.2   220      2.6   913.9    0.00       0    85.0
 213   21:30   84.1    34    0.3   145      1.4   914.0    0.00       0    85.0
 213   21:40   82.8    38    0.4    58      1.5   914.0    0.00       0    84.9
 213   21:50   82.2    39    0.4    70      1.3   913.9    0.00       0    84.9
 213   22:00   82.1    39    0.8    52      1.6   913.9    0.00       1    84.8
 213   22:10   82.0    38    0.6    27      1.6   913.8    0.00       0    84.8
 213   22:20   82.0    39    0.2   106      1.1   913.9    0.00       0    84.8
 213   22:30   82.3    37    1.2   133      2.6   913.8    0.00       0    84.7
 213   22:40   82.6    37    0.8   140      1.7   913.9    0.00       0    84.7
 213   22:50   82.6    36    1.1   205      2.9   913.8    0.00       0    84.6
 213   23:00   82.4    38    1.0   322      2.0   913.8    0.00       0    84.6
 213   23:10   82.0    39    0.1    52      0.9   913.9    0.00       0    84.5
 213   23:20   81.6    40    0.0     9      0.7   913.9    0.00       0    84.5
 213   23:30   81.3    41    0.8    30      1.5   913.9    0.00       0    84.5
 213   23:40   81.4    40    1.0    58      5.3   914.0    0.00       0    84.4
 213   23:50   82.2    38    1.9    38      5.0   914.0    0.00       1    84.4
 214    0:00   82.0    38    1.2    40      2.5   913.8    0.00       0    84.3
 214    0:10   81.6    40    0.8    97      2.0   913.7    0.00       0    84.3
 214    0:20   81.2    40    0.5   346      2.1   913.6    0.00       0    84.2
 214    0:30   81.3    40    0.4     3      1.5   913.5    0.00       0    84.2
 214    0:40   81.0    40    0.3   309      1.1   913.4    0.00       0    84.2
 214    0:50   80.9    41    1.1   355      2.3   913.3    0.00       0    84.1
 214    1:00   81.2    40    1.5   133      2.8   913.3    0.00       0    84.1
 214    1:10   81.2    40    1.8   207      3.1   913.3    0.00       0    84.0
 214    1:20   80.9    41    0.5   345      1.4   913.3    0.00       0    84.0
 214    1:30   80.3    43    0.7    77      1.5   913.2    0.00       0    83.9
 214    1:40   79.8    45    0.4   112      1.5   913.2    0.00       0    83.9
 214    1:50   79.9    44    0.8   141      1.7   913.2    0.00       0    83.9
 214    2:00   80.3    41    1.0    86      3.2   913.3    0.00       0    83.8
 214    2:10   80.1    43    0.3   288      1.4   913.3    0.00       0    83.8
 214    2:20   79.6    43    0.5   301      1.6   913.3    0.00       0    83.8
 214    2:30   78.9    48    0.1    47      0.9   913.4    0.00       0    83.7
 214    2:40   77.6    52    0.4    29      1.0   913.5    0.00       0    83.7
 214    2:50   77.1    52    0.4    18      1.2   913.3    0.00       0    83.7
 214    3:00   77.1    51    0.4    62      1.5   913.1    0.00       0    83.7
 214    3:10   76.8    50    0.2   252      1.3   913.1    0.00       0    83.6
 214    3:20   76.4    51    1.0     9      2.0   913.0    0.00       0    83.5
 214    3:30   76.6    50    0.4     2      1.5   912.9    0.00       0    83.5
 214    3:40   76.4    51    0.3    54      1.5   913.0    0.00       0    83.4
 214    3:50   77.1    48    1.3    56      2.3   913.0    0.00       0    83.4
 214    4:00   77.7    47    0.8    29      2.1   912.9    0.00       0    83.4
 214    4:10   77.9    46    0.9    73      2.6   912.8    0.00       0    83.3
 214    4:20   78.0    45    0.6   112      2.6   912.9    0.00       0    83.3
 214    4:30   77.7    48    0.8    67      3.4   912.9    0.00       0    83.2
 214    4:40   77.5    47    0.4   115      2.1   913.0    0.00       0    83.2
 214    4:50   77.1    49    0.0     0      0.0   913.1    0.00       0    83.1
 214    5:00   76.6    51    0.2    64      1.0   913.1    0.00       0    83.0
 214    5:10   76.4    51    0.0   355      0.5   913.2    0.00       0    83.0
 214    5:20   76.2    54    0.0     0      0.0   913.5    0.00       0    82.9
 214    5:30   76.1    54    0.1    58      0.9   913.6    0.00       0    82.9
 214    5:40   76.1    54    0.7    69      2.3   913.7    0.00       0    82.9
 214    5:50   76.4    54    0.7    72      2.0   913.8    0.00       5    82.9
 214    6:00   76.4    52    1.3    57      2.3   913.8    0.00      10    82.8
 214    6:10   76.7    50    0.9    57      1.9   913.9    0.00       6    82.7
 214    6:20   76.9    48    1.2    34      3.1   914.2    0.00       6    82.7
 214    6:30   77.2    49    1.2    63      2.2   914.3    0.00       6    82.6
 214    6:40   77.3    48    0.7   270      2.0   914.6    0.00       6    82.6
 214    6:50   76.6    56    1.7   280      3.7   914.8    0.00       7    82.5
 214    7:00   75.2    59    1.6   314      4.5   914.5    0.00       9    82.5
 214    7:10   75.1    60    1.1   330      4.3   914.5    0.00      10    82.5
 214    7:20   75.4    58    2.0   337      4.8   914.5    0.00      13    82.5
 214    7:30   75.7    57    2.7   325      6.1   914.4    0.00      17    82.5
 214    7:40   75.5    56    4.2   312      8.9   913.6    0.00      30    82.4
 214    7:50   76.5    54    2.5   145      9.1   914.0    0.00      37    82.4
 214    8:00   75.6    62    1.1   148      3.1   914.2    0.00      34    82.3
 214    8:10   75.3    61    1.3   171      6.0   914.5    0.00      40    82.3
 214    8:20   74.9    63    2.8   182      5.6   914.9    0.00      54    82.2
 214    8:30   74.3    65    2.4   215      5.0   915.1    0.00      68    82.2
 214    8:40   74.4    64    1.2   226      4.2   915.2    0.00      64    82.1
 214    8:50   74.9    63    1.9   313      4.5   915.0    0.00      78    82.1
 214    9:00   75.3    61    2.1   308      5.7   914.9    0.00     101    82.1
 214    9:10   76.1    57    2.7    48      6.2   915.0    0.00     140    82.0
 214    9:20   77.3    51    1.3    29      3.7   915.2    0.00     190    82.0
 214    9:30   78.1    53    2.1    38      5.3   915.3    0.00     258    82.0
 214    9:40   78.8    51    2.4   334      5.8   915.3    0.00     475    81.9
 214    9:50   79.6    48    3.4   215      6.3   915.3    0.00     404    81.9
 214   10:00   79.6    48    2.8   217      4.9   915.3    0.00     387    81.9
 214   10:10   79.6    47    2.9   220      4.7   915.2    0.00     331    81.8
 214   10:20   80.1    47    1.5   233      3.4   915.2    0.00     358    81.8
 214   10:30   81.3    44    1.1   280      2.6   915.3    0.00     460    81.8
 214   10:40   81.7    43    2.2   204      4.1   915.2    0.00     543    81.8
 214   10:50   81.6    43    1.8   164      4.3   915.2    0.00     609    81.9
 214   11:00   82.9    40    2.0    89      4.4   915.2    0.00     538    81.9
 214   11:10   83.2    41    1.1    60      2.8   915.1    0.00     869    81.9
 214   11:20   84.9    39    2.4   184      6.4   915.0    0.00     749    82.0
 214   11:30   83.9    40    1.9   174      6.4   914.9    0.00     718    82.0
 214   11:40   84.7    37    2.2    90      5.0   914.8    0.00     912    82.1
 214   11:50   85.6    36    1.9   158      5.6   914.7    0.00     909    82.1
 214   12:00   86.5    35    2.1    94      4.8   914.6    0.00     911    82.2
 214   12:10   86.3    34    2.1   122      6.2   914.4    0.00     912    82.3
 214   12:20   88.1    32    0.9   145      4.7   914.2    0.00     912    82.4
 214   12:30   88.9    31    1.1   319      3.9   914.1    0.00     872    82.5
 214   12:40   88.6    31    1.6   140      4.2   913.9    0.00     835    82.6
 214   12:50   88.2    31    2.3    58      5.0   913.8    0.00     921    82.8
 214   13:00   88.9    30    1.1    56      4.1   913.6    0.00     938    82.9
 214   13:10   89.3    28    1.0    45      7.0   913.5    0.00     939    83.0
 214   13:20   90.2    27    1.0    32      5.0   913.4    0.00     920    83.2
 214   13:30   90.8    27    1.6   197      5.9   913.1    0.00     964    83.4
 214   13:40   90.4    26    1.9   178      6.7   913.0    0.00     827    83.5
 214   13:50   91.0    25    1.7   213      5.8   912.9    0.00     836    83.7
 214   14:00   92.5    25    1.1   304      6.6   912.7    0.00    1034    83.9
 214   14:10   92.8    23    1.4   331      6.1   912.5    0.00     783    84.1
 214   14:20   93.2    23    1.8   190      9.3   912.3    0.00     919    84.3
 214   14:30   93.1    23    0.5   270      4.2   912.1    0.00     841    84.4
 214   14:40   93.9    22    2.0   307      7.2   911.9    0.00     829    84.6
 214   14:50   94.0    21    1.6   261      6.4   911.9    0.00     810    84.8
 214   15:00   93.9    21    1.7   334      6.1   911.8    0.00     792    84.9
 214   15:10   93.8    22    0.7    76      3.6   911.6    0.00     772    85.1
 214   15:20   95.9    21    1.2   264      6.5   911.4    0.00     752    85.3
 214   15:30   94.6    21    3.4   331      7.9   911.3    0.00     731    85.4
 214   15:40   94.6    21    2.8   186      7.9   911.2    0.00     707    85.6
 214   15:50   94.0    22    3.0   162      9.3   911.1    0.00     682    85.8
 214   16:00   95.1    22    3.9   194      9.6   911.0    0.00     658    86.0
 214   16:10   94.6    22    3.6   185     11.1   910.9    0.00     634    86.1
 214   16:20   95.1    22    3.8   187      9.4   910.9    0.00     603    86.2
 214   16:30   95.0    22    3.3   206      9.7   910.8    0.00     571    86.3
 214   16:40   95.2    21    2.3   199      6.4   910.7    0.00     476    86.5
 214   16:50   95.4    21    2.1   218      6.8   910.6    0.00     290    86.6
 214   17:00   94.9    21    2.8   215      7.0   910.6    0.00     338    86.7
 214   17:10   95.3    21    1.6   175      5.0   910.4    0.00     397    86.8
 214   17:20   95.4    21    2.7   176      7.6   910.4    0.00     421    86.8
 214   17:30   95.2    19    3.4   184      8.7   910.2    0.00     387    86.9
 214   17:40   95.3    19    1.7   182      6.4   910.1    0.00     356    87.0
 214   17:50   94.9    18    2.9   152      6.6   910.1    0.00     294    87.0
 214   18:00   95.0    18    1.1    83      3.4   909.9    0.00     293    87.0
 214   18:10   95.2    18    0.7   149      3.1   909.9    0.00     258    87.1
 214   18:20   95.1    18    1.0   276      2.8   909.8    0.00      79    87.1
 214   18:30   94.4    18    2.1   263      5.8   909.8    0.00      44    87.1
 214   18:40   94.7    16    1.6   306      4.3   909.8    0.00      56    87.1
 214   18:50   94.5    16    2.4   223      6.3   909.8    0.00      34    87.2
 214   19:00   94.5    16    2.7   240      7.7   910.0    0.00      25    87.2
 214   19:10   93.9    18    2.8   200      7.0   910.0    0.00      22    87.2
 214   19:20   93.3    19    3.0   193      6.9   910.0    0.00      16    87.2
 214   19:30   93.1    18    2.4   204      5.7   910.0    0.00      12    87.1
 214   19:40   92.3    19    2.0   186      4.5   910.1    0.00       6    87.1
 214   19:50   91.4    20    1.1   190      2.7   910.2    0.00       3    87.1

Return to St. George, Utah graphs page.


Western Regional Climate Center,wrcc@dri.edu